Time;durP1;ratioP1;P1;durP2;ratioP2;P2;SDS_P1;SDS_P2;PMS_P1;PMS_P2;Temp;Humidity;BMP_temperature;BMP_pressure;BME280_temperature;BME280_humidity;BME280_pressure;Samples;Min_cycle;Max_cycle;Signal;HPM_P1;HPM_P2
2023/01/07 00:01:03;;;;;;;;;;;;;;;8.48;100.00;100531.06;5035166;28;20383;-62
2023/01/07 00:03:28;;;;;;;;;;;;;;;8.54;100.00;100540.25;5043658;28;19921;-61
2023/01/07 00:06:00;;;;;;;;;;;;;;;8.59;100.00;100543.47;5053479;28;19989;-60
2023/01/07 00:08:27;;;;;;;;;;;;;;;8.71;100.00;100537.84;5048121;28;19971;-60
2023/01/07 00:10:52;;;;;;;;;;;;;;;8.68;100.00;100550.81;5023953;28;19921;-60
2023/01/07 00:13:17;;;;;;;;;;;;;;;8.68;100.00;100537.13;5038478;28;19925;-61
2023/01/07 00:15:43;;;;;;;;;;;;;;;8.74;100.00;100543.78;5035632;28;19974;-62
2023/01/07 00:18:08;;;;;;;;;;;;;;;8.76;100.00;100539.38;5060123;28;20481;-61
2023/01/07 00:20:33;;;;;;;;;;;;;;;8.79;100.00;100542.66;5045463;28;19924;-60
2023/01/07 00:22:58;;;;;;;;;;;;;;;8.84;100.00;100545.91;5054940;28;20300;-61
2023/01/07 00:25:24;;;;;;;;;;;;;;;8.85;100.00;100536.47;5050549;28;19917;-60
2023/01/07 00:27:49;;;;;;;;;;;;;;;8.91;100.00;100535.41;5040184;28;19929;-61
2023/01/07 00:30:14;;;;;;;;;;;;;;;8.94;100.00;100532.69;5036915;28;19921;-60
2023/01/07 00:32:52;;;;;;;;;;;;;;;8.96;100.00;100529.16;5060195;28;19920;-60
2023/01/07 00:35:22;;;;;;;;;;;;;;;9.00;100.00;100528.13;5053255;28;19920;-60
2023/01/07 00:37:51;;;;;;;;;;;;;;;9.03;100.00;100528.03;5052651;28;19921;-60
2023/01/07 00:40:16;;;;;;;;;;;;;;;9.00;100.00;100523.00;5043619;28;19916;-60
2023/01/07 00:42:53;;;;;;;;;;;;;;;8.97;100.00;100524.91;5049393;28;19928;-60
2023/01/07 00:45:22;;;;;;;;;;;;;;;8.97;100.00;100512.88;5049116;28;20011;-60
2023/01/07 00:47:47;;;;;;;;;;;;;;;8.81;100.00;100511.84;5050482;28;19964;-60
2023/01/07 00:50:12;;;;;;;;;;;;;;;8.72;100.00;100503.63;5042236;28;19963;-60
2023/01/07 00:52:38;;;;;;;;;;;;;;;8.88;100.00;100506.41;5052019;28;19921;-61
2023/01/07 00:55:03;;;;;;;;;;;;;;;8.77;100.00;100515.41;5044957;28;20375;-61
2023/01/07 00:57:28;;;;;;;;;;;;;;;8.84;100.00;100499.75;5051798;28;20431;-60
2023/01/07 00:59:53;;;;;;;;;;;;;;;8.77;100.00;100507.72;5043044;28;19917;-61
2023/01/07 01:02:19;;;;;;;;;;;;;;;8.71;100.00;100498.56;5054058;28;19925;-60
2023/01/07 01:04:44;;;;;;;;;;;;;;;8.73;100.00;100499.31;5049057;28;19924;-61
2023/01/07 01:07:09;;;;;;;;;;;;;;;8.71;100.00;100504.50;5051967;28;19923;-60
2023/01/07 01:09:34;;;;;;;;;;;;;;;8.82;100.00;100493.81;5049384;28;20382;-60
2023/01/07 01:11:59;;;;;;;;;;;;;;;8.76;100.00;100500.91;5050457;28;19925;-60
2023/01/07 01:14:24;;;;;;;;;;;;;;;8.79;100.00;100491.38;5044982;28;20383;-60
2023/01/07 01:16:49;;;;;;;;;;;;;;;8.86;100.00;100485.09;5050789;28;19921;-61
2023/01/07 01:19:15;;;;;;;;;;;;;;;8.95;100.00;100485.63;5052899;28;19913;-60
2023/01/07 01:21:40;;;;;;;;;;;;;;;8.96;100.00;100487.28;5052122;28;19921;-61
2023/01/07 01:24:05;;;;;;;;;;;;;;;8.80;100.00;100487.91;5047753;28;20015;-60
2023/01/07 01:26:31;;;;;;;;;;;;;;;8.88;100.00;100479.91;5047867;28;20265;-60
2023/01/07 01:28:56;;;;;;;;;;;;;;;8.80;100.00;100482.78;5052797;28;20043;-60
2023/01/07 01:31:21;;;;;;;;;;;;;;;8.65;100.00;100484.25;5041660;28;19963;-60
2023/01/07 01:33:47;;;;;;;;;;;;;;;8.52;100.00;100481.34;5049332;28;19923;-59
2023/01/07 01:36:12;;;;;;;;;;;;;;;8.53;100.00;100482.16;5057125;28;20035;-60
2023/01/07 01:38:37;;;;;;;;;;;;;;;8.48;100.00;100487.47;5052867;28;19925;-59
2023/01/07 01:41:03;;;;;;;;;;;;;;;8.47;100.00;100490.97;5050428;28;19940;-60
2023/01/07 01:43:36;;;;;;;;;;;;;;;8.59;100.00;100497.31;5060403;28;19931;-61
2023/01/07 01:46:03;;;;;;;;;;;;;;;8.54;100.00;100492.34;5051573;28;20103;-60
2023/01/07 01:48:29;;;;;;;;;;;;;;;8.66;100.00;100485.91;5052636;28;19927;-60
2023/01/07 01:50:55;;;;;;;;;;;;;;;8.64;100.00;100482.56;5039050;28;19922;-60
2023/01/07 01:53:22;;;;;;;;;;;;;;;8.54;100.00;100479.53;5044118;28;19917;-60
2023/01/07 01:55:54;;;;;;;;;;;;;;;8.56;100.00;100484.63;5050866;28;19916;-64
2023/01/07 01:58:23;;;;;;;;;;;;;;;8.45;100.00;100482.44;5051924;28;20312;-60
2023/01/07 02:00:48;;;;;;;;;;;;;;;8.50;100.00;100475.44;5048080;28;19994;-61
2023/01/07 02:03:16;;;;;;;;;;;;;;;8.38;100.00;100470.75;5061686;28;19980;-61
2023/01/07 02:05:43;;;;;;;;;;;;;;;8.44;100.00;100473.09;5052189;28;19917;-60
2023/01/07 02:08:08;;;;;;;;;;;;;;;8.51;100.00;100479.69;5051810;28;19928;-60
2023/01/07 02:10:34;;;;;;;;;;;;;;;8.33;100.00;100465.00;5043641;28;19920;-60
2023/01/07 02:13:18;;;;;;;;;;;;;;;8.36;100.00;100467.41;5055223;28;19976;-60
2023/01/07 02:15:53;;;;;;;;;;;;;;;8.23;100.00;100460.22;5051975;28;19959;-59
2023/01/07 02:18:26;;;;;;;;;;;;;;;8.27;100.00;100458.38;5051928;28;19928;-59
2023/01/07 02:21:09;;;;;;;;;;;;;;;8.28;100.00;100460.03;5048386;28;19920;-59
2023/01/07 02:23:53;;;;;;;;;;;;;;;8.34;100.00;100464.09;5058645;28;19924;-60
2023/01/07 02:26:42;;;;;;;;;;;;;;;8.25;100.00;100460.16;5050117;28;20379;-61
2023/01/07 02:29:26;;;;;;;;;;;;;;;8.23;100.00;100454.25;5046111;28;20008;-59
2023/01/07 02:32:10;;;;;;;;;;;;;;;8.23;100.00;100449.97;5048762;28;19925;-60
2023/01/07 02:34:56;;;;;;;;;;;;;;;8.23;100.00;100451.69;5051998;28;19928;-59
2023/01/07 02:37:24;;;;;;;;;;;;;;;8.34;100.00;100448.72;5043531;28;19924;-59
2023/01/07 02:40:05;;;;;;;;;;;;;;;8.33;100.00;100449.59;5051407;28;19921;-62
2023/01/07 02:42:46;;;;;;;;;;;;;;;8.40;100.00;100443.34;5024058;28;20254;-59
2023/01/07 02:45:30;;;;;;;;;;;;;;;8.42;100.00;100436.41;5040961;28;19921;-60
2023/01/07 02:47:56;;;;;;;;;;;;;;;8.43;100.00;100438.09;5049716;28;19921;-59
2023/01/07 02:50:22;;;;;;;;;;;;;;;8.39;100.00;100437.38;5043998;28;19933;-59
2023/01/07 02:52:47;;;;;;;;;;;;;;;8.33;100.00;100436.78;5052762;28;19924;-59
2023/01/07 02:55:14;;;;;;;;;;;;;;;8.36;100.00;100434.09;5050478;28;19917;-60
2023/01/07 02:57:46;;;;;;;;;;;;;;;8.42;100.00;100428.72;5050289;28;19931;-60
2023/01/07 03:00:26;;;;;;;;;;;;;;;8.45;100.00;100420.09;5042648;28;19917;-59
2023/01/07 03:03:12;;;;;;;;;;;;;;;8.51;100.00;100420.69;5051454;28;19917;-60
2023/01/07 03:05:46;;;;;;;;;;;;;;;8.58;100.00;100415.31;5051541;28;19916;-60
2023/01/07 03:08:14;;;;;;;;;;;;;;;8.56;100.00;100420.53;5050995;28;19943;-60
2023/01/07 03:11:12;;;;;;;;;;;;;;;8.50;100.00;100415.66;5043128;28;20093;-60
2023/01/07 03:13:37;;;;;;;;;;;;;;;8.56;100.00;100412.84;4989803;28;20056;-59
2023/01/07 03:16:07;;;;;;;;;;;;;;;8.57;100.00;100406.81;4989737;28;20396;-59
2023/01/07 03:18:38;;;;;;;;;;;;;;;8.53;100.00;100406.09;4989847;28;19941;-59
2023/01/07 03:21:06;;;;;;;;;;;;;;;8.55;100.00;100413.72;4980245;28;19926;-61
2023/01/07 03:23:32;;;;;;;;;;;;;;;8.63;100.00;100409.09;5001277;28;20316;-59
2023/01/07 03:26:00;;;;;;;;;;;;;;;8.81;100.00;100404.94;5010130;28;19917;-59
2023/01/07 03:28:28;;;;;;;;;;;;;;;8.91;100.00;100397.69;5012789;28;19973;-60
2023/01/07 03:30:55;;;;;;;;;;;;;;;8.87;100.00;100399.53;4996341;28;20027;-59
2023/01/07 03:33:24;;;;;;;;;;;;;;;8.90;100.00;100402.88;5003881;28;19947;-60
2023/01/07 03:35:50;;;;;;;;;;;;;;;8.84;100.00;100394.56;5012969;28;19922;-63
2023/01/07 03:38:17;;;;;;;;;;;;;;;8.83;100.00;100400.59;5012777;28;19924;-60
2023/01/07 03:40:42;;;;;;;;;;;;;;;8.88;100.00;100390.97;4986911;28;20281;-59
2023/01/07 03:43:11;;;;;;;;;;;;;;;8.90;100.00;100390.06;4996077;28;19976;-59
2023/01/07 03:45:36;;;;;;;;;;;;;;;8.87;100.00;100391.84;5012954;28;19918;-59
2023/01/07 03:48:01;;;;;;;;;;;;;;;8.89;100.00;100394.34;5013008;28;20409;-59
2023/01/07 03:50:27;;;;;;;;;;;;;;;8.76;100.00;100388.06;5047893;28;19920;-61
2023/01/07 03:52:52;;;;;;;;;;;;;;;8.67;100.00;100395.25;5066720;28;19923;-59
2023/01/07 03:55:17;;;;;;;;;;;;;;;8.71;100.00;100388.28;5055041;28;19916;-59
2023/01/07 03:57:42;;;;;;;;;;;;;;;8.55;100.00;100388.09;5054665;28;20004;-59
2023/01/07 04:00:10;;;;;;;;;;;;;;;8.60;100.00;100380.22;5033892;28;20012;-59
2023/01/07 04:02:35;;;;;;;;;;;;;;;8.66;100.00;100382.50;5049001;28;19917;-60
2023/01/07 04:05:00;;;;;;;;;;;;;;;8.71;100.00;100373.72;5046407;28;19943;-59
2023/01/07 04:07:25;;;;;;;;;;;;;;;8.65;100.00;100373.97;5053762;28;19924;-60
2023/01/07 04:09:50;;;;;;;;;;;;;;;8.71;100.00;100367.75;5054408;28;19917;-61
2023/01/07 04:12:16;;;;;;;;;;;;;;;8.56;100.00;100374.38;5060077;28;20027;-60
2023/01/07 04:14:41;;;;;;;;;;;;;;;8.60;100.00;100372.50;5054512;28;20291;-60
2023/01/07 04:17:06;;;;;;;;;;;;;;;8.75;100.00;100361.59;5059326;28;19971;-60
2023/01/07 04:19:32;;;;;;;;;;;;;;;8.59;100.00;100355.47;5054553;28;19916;-60
2023/01/07 04:21:57;;;;;;;;;;;;;;;8.67;100.00;100354.22;5058742;28;19986;-60
2023/01/07 04:24:22;;;;;;;;;;;;;;;8.56;100.00;100348.72;5055100;28;19964;-60
2023/01/07 04:26:47;;;;;;;;;;;;;;;8.54;100.00;100350.50;5052279;28;20021;-59
2023/01/07 04:29:12;;;;;;;;;;;;;;;8.60;100.00;100349.44;5054389;28;19917;-60
2023/01/07 04:31:38;;;;;;;;;;;;;;;8.64;100.00;100345.84;5056231;28;20681;-60
2023/01/07 04:34:03;;;;;;;;;;;;;;;8.47;100.00;100343.97;5057100;28;19921;-60
2023/01/07 04:36:28;;;;;;;;;;;;;;;8.45;100.00;100344.00;5061779;28;19925;-60
2023/01/07 04:38:53;;;;;;;;;;;;;;;8.44;100.00;100344.09;5053801;28;20015;-60
2023/01/07 04:41:19;;;;;;;;;;;;;;;8.31;100.00;100344.59;5045764;28;20303;-60
2023/01/07 04:43:44;;;;;;;;;;;;;;;8.27;100.00;100343.03;5059423;28;19921;-61
2023/01/07 04:46:09;;;;;;;;;;;;;;;8.31;100.00;100341.19;5053070;28;19924;-60
2023/01/07 04:48:34;;;;;;;;;;;;;;;8.33;100.00;100341.97;5053873;28;19939;-61
2023/01/07 04:50:59;;;;;;;;;;;;;;;8.36;100.00;100334.13;5035181;28;19964;-59
2023/01/07 04:53:25;;;;;;;;;;;;;;;8.31;100.00;100324.09;5053001;28;20280;-61
2023/01/07 04:55:51;;;;;;;;;;;;;;;8.31;100.00;100318.97;5053751;28;20292;-63
2023/01/07 04:58:16;;;;;;;;;;;;;;;8.29;100.00;100322.50;5053459;28;19916;-60
2023/01/07 05:00:41;;;;;;;;;;;;;;;8.30;100.00;100322.41;5048471;28;20464;-59
2023/01/07 05:03:06;;;;;;;;;;;;;;;8.36;100.00;100311.91;5063791;28;19917;-60
2023/01/07 05:05:32;;;;;;;;;;;;;;;8.31;100.00;100320.66;5053072;28;20351;-59
2023/01/07 05:07:57;;;;;;;;;;;;;;;8.51;100.00;100301.94;5052719;28;20439;-60
2023/01/07 05:10:22;;;;;;;;;;;;;;;8.57;100.00;100301.69;5045817;28;19929;-59
2023/01/07 05:12:47;;;;;;;;;;;;;;;8.56;100.00;100305.97;5066171;28;20312;-59
2023/01/07 05:15:12;;;;;;;;;;;;;;;8.59;100.00;100299.03;5053198;28;20000;-59
2023/01/07 05:17:38;;;;;;;;;;;;;;;8.54;100.00;100288.97;5052932;28;19996;-59
2023/01/07 05:20:04;;;;;;;;;;;;;;;8.50;100.00;100284.91;5046519;28;20284;-60
2023/01/07 05:22:29;;;;;;;;;;;;;;;8.21;100.00;100272.38;5068093;28;19917;-59
2023/01/07 05:24:55;;;;;;;;;;;;;;;8.19;100.00;100278.47;5052963;28;20279;-59
2023/01/07 05:27:20;;;;;;;;;;;;;;;8.25;100.00;100278.22;5052537;28;20336;-59
2023/01/07 05:29:45;;;;;;;;;;;;;;;8.23;100.00;100282.56;5052951;28;19917;-60
2023/01/07 05:32:10;;;;;;;;;;;;;;;8.30;100.00;100285.69;5058418;28;20295;-60
2023/01/07 05:34:35;;;;;;;;;;;;;;;8.40;100.00;100284.41;5052833;28;19964;-60
2023/01/07 05:37:00;;;;;;;;;;;;;;;8.44;100.00;100280.00;5061676;28;19923;-60
2023/01/07 05:39:26;;;;;;;;;;;;;;;8.41;100.00;100280.97;5052598;28;19920;-60
2023/01/07 05:41:54;;;;;;;;;;;;;;;8.34;100.00;100277.00;5056779;28;19927;-60
2023/01/07 05:44:19;;;;;;;;;;;;;;;8.36;100.00;100275.16;5050975;28;19921;-60
2023/01/07 05:46:44;;;;;;;;;;;;;;;8.44;100.00;100277.44;5052163;28;20269;-60
2023/01/07 05:49:09;;;;;;;;;;;;;;;8.40;100.00;100274.97;5050500;28;20078;-60
2023/01/07 05:51:34;;;;;;;;;;;;;;;8.36;100.00;100270.03;5036718;28;19925;-61
2023/01/07 05:53:59;;;;;;;;;;;;;;;8.34;100.00;100267.56;5052062;28;19999;-60
2023/01/07 05:56:25;;;;;;;;;;;;;;;8.42;100.00;100267.22;5052103;28;19917;-59
2023/01/07 05:58:50;;;;;;;;;;;;;;;8.44;100.00;100267.19;5052188;28;19936;-60
2023/01/07 06:01:15;;;;;;;;;;;;;;;8.43;100.00;100263.75;5051964;28;20014;-60
2023/01/07 06:03:40;;;;;;;;;;;;;;;8.50;100.00;100270.34;5050840;28;19917;-60
2023/01/07 06:06:05;;;;;;;;;;;;;;;8.55;100.00;100265.84;5051497;28;19979;-60
2023/01/07 06:08:32;;;;;;;;;;;;;;;8.58;100.00;100267.44;5051938;28;19917;-59
2023/01/07 06:10:57;;;;;;;;;;;;;;;8.58;100.00;100266.59;5049637;28;20360;-60
2023/01/07 06:13:22;;;;;;;;;;;;;;;8.34;100.00;100266.72;5060456;28;19944;-59
2023/01/07 06:15:47;;;;;;;;;;;;;;;8.40;100.00;100261.34;5052311;28;19917;-60
2023/01/07 06:18:12;;;;;;;;;;;;;;;8.31;100.00;100257.44;5051392;28;20257;-60
2023/01/07 06:20:38;;;;;;;;;;;;;;;8.36;100.00;100259.78;5046759;28;19932;-60
2023/01/07 06:23:03;;;;;;;;;;;;;;;8.38;100.00;100256.28;5054716;28;19978;-60
2023/01/07 06:25:29;;;;;;;;;;;;;;;8.37;100.00;100253.78;5052252;28;19924;-59
2023/01/07 06:27:57;;;;;;;;;;;;;;;8.44;100.00;100251.78;5051699;28;19917;-61
2023/01/07 06:30:22;;;;;;;;;;;;;;;8.39;100.00;100245.13;5043406;28;20401;-60
2023/01/07 06:32:47;;;;;;;;;;;;;;;8.27;100.00;100244.81;5064497;28;19917;-60
2023/01/07 06:35:13;;;;;;;;;;;;;;;8.37;100.00;100239.25;5054907;28;19924;-60
2023/01/07 06:37:38;;;;;;;;;;;;;;;8.26;100.00;100241.44;5055396;28;19939;-60
2023/01/07 06:40:04;;;;;;;;;;;;;;;8.16;100.00;100230.75;5043629;28;19970;-60
2023/01/07 06:42:29;;;;;;;;;;;;;;;8.20;100.00;100236.56;5066813;28;19933;-61
2023/01/07 06:44:54;;;;;;;;;;;;;;;8.30;100.00;100234.44;5050535;28;19920;-59
2023/01/07 06:47:19;;;;;;;;;;;;;;;8.31;100.00;100233.53;5051300;28;19931;-59
2023/01/07 06:49:44;;;;;;;;;;;;;;;8.24;100.00;100235.53;5038011;28;19970;-59
2023/01/07 06:52:10;;;;;;;;;;;;;;;8.34;100.00;100223.16;5030331;28;19955;-60
2023/01/07 06:54:35;;;;;;;;;;;;;;;8.36;100.00;100223.91;5051792;28;19982;-59
2023/01/07 06:57:00;;;;;;;;;;;;;;;8.42;100.00;100215.13;5051658;28;20395;-60
2023/01/07 06:59:25;;;;;;;;;;;;;;;8.27;100.00;100216.63;5051753;28;19917;-60
2023/01/07 07:01:50;;;;;;;;;;;;;;;8.36;100.00;100211.94;5059776;28;20453;-62
2023/01/07 07:04:15;;;;;;;;;;;;;;;8.42;100.00;100215.13;5043840;28;20008;-61
2023/01/07 07:06:40;;;;;;;;;;;;;;;8.41;100.00;100209.19;5041310;28;20284;-59
2023/01/07 07:09:06;;;;;;;;;;;;;;;8.36;100.00;100205.97;5041762;28;20342;-60
2023/01/07 07:11:31;;;;;;;;;;;;;;;8.30;100.00;100201.97;5054456;28;19924;-60
2023/01/07 07:13:56;;;;;;;;;;;;;;;8.30;100.00;100198.53;5058605;28;20275;-60
2023/01/07 07:16:22;;;;;;;;;;;;;;;8.24;100.00;100199.66;5055271;28;19924;-60
2023/01/07 07:18:48;;;;;;;;;;;;;;;8.19;100.00;100197.28;5055182;28;19924;-60
2023/01/07 07:21:13;;;;;;;;;;;;;;;8.12;100.00;100198.44;5047173;28;20368;-59
2023/01/07 07:23:38;;;;;;;;;;;;;;;8.12;100.00;100193.31;5053475;28;19963;-61
2023/01/07 07:26:03;;;;;;;;;;;;;;;8.14;100.00;100193.28;5054622;28;19923;-59
2023/01/07 07:28:29;;;;;;;;;;;;;;;8.13;100.00;100189.03;5055305;28;19917;-60
2023/01/07 07:30:54;;;;;;;;;;;;;;;8.17;100.00;100195.69;5051804;28;19924;-59
2023/01/07 07:33:19;;;;;;;;;;;;;;;8.25;100.00;100188.50;5058792;28;20004;-60
2023/01/07 07:35:44;;;;;;;;;;;;;;;8.30;100.00;100181.47;5055614;28;19923;-59
2023/01/07 07:38:09;;;;;;;;;;;;;;;8.23;100.00;100177.50;5053015;28;20420;-60
2023/01/07 07:40:35;;;;;;;;;;;;;;;8.21;100.00;100179.28;5049288;28;19924;-60
2023/01/07 07:43:00;;;;;;;;;;;;;;;8.31;100.00;100179.72;5053518;28;19924;-60
2023/01/07 07:45:25;;;;;;;;;;;;;;;8.40;100.00;100176.75;5054914;28;19921;-59
2023/01/07 07:47:50;;;;;;;;;;;;;;;8.37;100.00;100182.00;5054105;28;19916;-61
2023/01/07 07:50:16;;;;;;;;;;;;;;;8.37;100.00;100180.28;5047196;28;20004;-59
2023/01/07 07:52:41;;;;;;;;;;;;;;;8.40;100.00;100174.19;5027746;28;19982;-60
2023/01/07 07:55:06;;;;;;;;;;;;;;;8.40;100.00;100174.19;5053507;28;19940;-60
2023/01/07 07:57:32;;;;;;;;;;;;;;;8.47;100.00;100172.22;5054266;28;19916;-59
2023/01/07 07:59:57;;;;;;;;;;;;;;;8.47;100.00;100161.94;5052951;28;20320;-60
2023/01/07 08:02:22;;;;;;;;;;;;;;;8.57;100.00;100165.78;5049822;28;19921;-60
2023/01/07 08:04:47;;;;;;;;;;;;;;;8.52;100.00;100172.84;5054476;28;20351;-59
2023/01/07 08:07:12;;;;;;;;;;;;;;;8.56;100.00;100169.25;5053604;28;19924;-59
2023/01/07 08:09:38;;;;;;;;;;;;;;;8.78;100.00;100155.44;5053264;28;19913;-60
2023/01/07 08:12:03;;;;;;;;;;;;;;;8.83;100.00;100166.31;5045115;28;20380;-60
2023/01/07 08:14:28;;;;;;;;;;;;;;;8.98;100.00;100160.47;5054388;28;19920;-59
2023/01/07 08:16:53;;;;;;;;;;;;;;;8.94;100.00;100156.38;5057805;28;19954;-60
2023/01/07 08:19:18;;;;;;;;;;;;;;;8.77;100.00;100146.06;5052924;28;20015;-59
2023/01/07 08:21:44;;;;;;;;;;;;;;;8.86;100.00;100150.78;5057288;28;19979;-59
2023/01/07 08:24:09;;;;;;;;;;;;;;;8.90;100.00;100144.59;5056529;28;19932;-59
2023/01/07 08:26:34;;;;;;;;;;;;;;;8.99;100.00;100145.91;5053668;28;19963;-59
2023/01/07 08:28:59;;;;;;;;;;;;;;;9.10;100.00;100137.72;5054550;28;19998;-59
2023/01/07 08:31:25;;;;;;;;;;;;;;;9.08;100.00;100137.78;5054739;28;19925;-59
2023/01/07 08:36:53;;;;;;;;;;;;;;;8.84;100.00;100126.94;5057451;28;19978;-60
2023/01/07 08:39:18;;;;;;;;;;;;;;;8.64;100.00;100131.25;5053893;28;19917;-59
2023/01/07 08:41:43;;;;;;;;;;;;;;;8.58;100.00;100128.97;5057133;28;20402;-60
2023/01/07 08:44:08;;;;;;;;;;;;;;;8.61;100.00;100121.16;5055826;28;19921;-60
2023/01/07 08:46:33;;;;;;;;;;;;;;;8.45;100.00;100115.03;5053272;28;19917;-59
2023/01/07 08:48:59;;;;;;;;;;;;;;;8.31;100.00;100120.75;5053281;28;20197;-59
2023/01/07 08:51:24;;;;;;;;;;;;;;;8.32;100.00;100120.72;5040130;28;19983;-59
2023/01/07 08:54:16;;;;;;;;;;;;;;;8.27;100.00;100117.50;5053098;28;20307;-63
2023/01/07 08:56:41;;;;;;;;;;;;;;;8.20;100.00;100116.13;5048129;28;19936;-60
2023/01/07 08:59:07;;;;;;;;;;;;;;;8.26;100.00;100113.31;5053323;28;19924;-59
2023/01/07 09:01:32;;;;;;;;;;;;;;;8.30;100.00;100113.97;5055161;28;19943;-60
2023/01/07 09:03:57;;;;;;;;;;;;;;;8.33;100.00;100108.72;5056493;28;20291;-60
2023/01/07 09:06:22;;;;;;;;;;;;;;;8.35;100.00;100100.06;5052533;28;19962;-60
2023/01/07 09:08:48;;;;;;;;;;;;;;;8.33;100.00;100101.84;5036134;28;19940;-60
2023/01/07 09:11:13;;;;;;;;;;;;;;;8.42;100.00;100095.47;5032994;28;19921;-60
2023/01/07 09:13:38;;;;;;;;;;;;;;;8.57;100.00;100094.00;5052124;28;19960;-60
2023/01/07 09:16:03;;;;;;;;;;;;;;;8.68;100.00;100091.75;5042226;28;19928;-59
2023/01/07 09:18:29;;;;;;;;;;;;;;;8.49;100.00;100085.81;5039124;28;19918;-58
2023/01/07 09:20:54;;;;;;;;;;;;;;;8.39;100.00;100082.81;5036841;28;19920;-58
2023/01/07 09:23:19;;;;;;;;;;;;;;;8.32;100.00;100086.56;5058405;28;19936;-58
2023/01/07 09:25:44;;;;;;;;;;;;;;;8.26;100.00;100074.88;5034801;28;20047;-58
2023/01/07 09:28:09;;;;;;;;;;;;;;;8.37;100.00;100080.31;5037706;28;19932;-59
2023/01/07 09:30:36;;;;;;;;;;;;;;;8.38;100.00;100081.16;5041383;28;19940;-58
2023/01/07 09:33:01;;;;;;;;;;;;;;;8.39;100.00;100086.19;5049248;28;19921;-58
2023/01/07 09:35:26;;;;;;;;;;;;;;;8.49;100.00;100089.19;5038410;28;19920;-58
2023/01/07 09:37:51;;;;;;;;;;;;;;;8.50;100.00;100090.06;5037515;28;19958;-61
2023/01/07 09:40:22;;;;;;;;;;;;;;;8.55;100.00;100088.91;5027113;28;20012;-61
2023/01/07 09:42:53;;;;;;;;;;;;;;;8.67;100.00;100092.66;5048654;28;19931;-61
2023/01/07 09:45:22;;;;;;;;;;;;;;;8.80;100.00;100081.81;5052263;28;19924;-61
2023/01/07 09:47:50;;;;;;;;;;;;;;;8.87;100.00;100084.00;5038747;28;19967;-62
2023/01/07 09:50:15;;;;;;;;;;;;;;;8.82;100.00;100085.97;5026475;28;20036;-61
2023/01/07 09:52:44;;;;;;;;;;;;;;;8.79;100.00;100080.16;5018027;28;20012;-61
2023/01/07 09:55:21;;;;;;;;;;;;;;;8.88;100.00;100075.41;5033663;28;19918;-61
2023/01/07 09:57:46;;;;;;;;;;;;;;;9.16;100.00;100068.13;5047047;28;19993;-61
2023/01/07 10:00:18;;;;;;;;;;;;;;;9.18;100.00;100063.75;5026320;28;20020;-62
2023/01/07 10:02:48;;;;;;;;;;;;;;;9.39;100.00;100064.41;5050696;28;19917;-61
2023/01/07 10:05:28;;;;;;;;;;;;;;;9.30;100.00;100059.72;5038524;28;19924;-61
2023/01/07 10:07:56;;;;;;;;;;;;;;;9.45;100.00;100061.53;5042285;28;19917;-61
2023/01/07 10:10:21;;;;;;;;;;;;;;;9.52;100.00;100052.59;5032722;28;19993;-61
2023/01/07 10:13:05;;;;;;;;;;;;;;;9.65;100.00;100051.97;5064952;28;20007;-63
2023/01/07 10:15:46;;;;;;;;;;;;;;;9.41;100.00;100048.94;5052006;28;19970;-61
2023/01/07 10:18:33;;;;;;;;;;;;;;;9.27;100.00;100045.31;5044009;28;19917;-63
2023/01/07 10:21:07;;;;;;;;;;;;;;;9.45;100.00;100047.84;5051312;28;19990;-59
2023/01/07 10:26:01;;;;;;;5.33;3.90;;;;;;;9.76;100.00;100039.44;5094364;27;1214283;-59
2023/01/07 10:28:40;;;;;;;4.87;3.23;;;;;;;9.87;100.00;100038.03;5119596;28;20268;-59
2023/01/07 10:31:18;;;;;;;3.60;3.30;;;;;;;9.85;100.00;100038.13;5089257;27;20223;-59
2023/01/07 10:33:46;;;;;;;3.20;2.87;;;;;;;9.87;100.00;100031.13;5067064;28;20184;-59
2023/01/07 10:36:22;;;;;;;3.93;3.60;;;;;;;9.90;100.00;100019.88;5059627;28;20273;-61
2023/01/07 10:38:58;;;;;;;3.03;2.73;;;;;;;10.30;100.00;100020.31;5059588;28;20189;-60
2023/01/07 10:41:55;;;;;;;3.60;2.87;;;;;;;10.08;100.00;100018.06;5067693;28;20322;-60
2023/01/07 10:44:36;;;;;;;3.00;2.70;;;;;;;9.97;100.00;100005.78;5050549;28;20217;-60
2023/01/07 10:47:30;;;;;;;2.60;2.20;;;;;;;9.88;100.00;100004.53;5063642;28;20185;-60
2023/01/07 10:50:17;;;;;;;3.37;2.50;;;;;;;9.77;100.00;99999.97;5039931;28;20196;-60
2023/01/07 10:53:11;;;;;;;2.50;2.30;;;;;;;9.88;100.00;99993.44;5074027;28;20583;-61
2023/01/07 10:56:13;;;;;;;2.37;2.17;;;;;;;9.98;100.00;99989.47;5078283;28;20261;-60
2023/01/07 10:58:42;;;;;;;2.40;2.20;;;;;;;10.02;100.00;99981.50;5076313;28;20237;-60
2023/01/07 11:01:17;;;;;;;2.17;2.03;;;;;;;10.04;100.00;99972.91;5075673;28;20223;-59
2023/01/07 11:03:42;;;;;;;3.07;1.90;;;;;;;9.78;100.00;99964.84;5080371;28;20258;-60
2023/01/07 11:06:12;;;;;;;1.77;1.67;;;;;;;9.98;100.00;99967.16;5073188;28;20774;-61
2023/01/07 11:08:39;;;;;;;2.10;1.60;;;;;;;9.63;100.00;99951.91;5066164;28;20260;-60
2023/01/07 11:11:10;;;;;;;4.13;1.53;;;;;;;9.66;100.00;99959.44;5065238;28;20247;-61
2023/01/07 11:13:39;;;;;;;2.37;1.70;;;;;;;9.51;100.00;99965.38;5072095;28;20180;-60
2023/01/07 11:16:20;;;;;;;4.90;1.57;;;;;;;9.68;100.00;99955.03;5065474;28;20185;-60
2023/01/07 11:18:57;;;;;;;2.17;1.80;;;;;;;9.87;100.00;99955.81;5066882;28;20185;-59
2023/01/07 11:21:31;;;;;;;1.70;1.60;;;;;;;9.71;100.00;99946.34;5063906;28;20265;-59
2023/01/07 11:23:57;;;;;;;1.80;1.50;;;;;;;9.65;100.00;99939.81;5068463;28;20197;-59
2023/01/07 11:26:25;;;;;;;1.47;1.37;;;;;;;9.62;100.00;99941.72;5066568;28;20185;-61
2023/01/07 11:28:57;;;;;;;1.50;1.40;;;;;;;9.59;100.00;99932.44;5066835;28;20181;-61
2023/01/07 11:31:44;;;;;;;1.63;1.43;;;;;;;9.61;100.00;99933.19;5056452;28;20376;-60
2023/01/07 11:34:50;;;;;;;1.83;1.20;;;;;;;9.45;100.00;99930.59;5049932;28;20269;-61
2023/01/07 11:37:32;;;;;;;1.53;1.43;;;;;;;9.48;100.00;99930.44;5022116;28;20646;-61
2023/01/07 11:39:59;;;;;;;1.80;1.60;;;;;;;9.55;100.00;99922.41;5018326;28;20186;-61
2023/01/07 11:42:39;;;;;;;1.83;1.60;;;;;;;9.49;100.00;99916.69;4985201;28;20239;-63
2023/01/07 11:45:21;;;;;;;1.60;1.50;;;;;;;9.52;100.00;99911.38;5008199;28;20268;-60
2023/01/07 11:48:00;;;;;;;2.13;1.50;;;;;;;9.44;100.00;99905.84;4999241;28;20253;-62
2023/01/07 11:50:28;;;;;;;2.33;1.30;;;;;;;9.38;100.00;99901.03;4991964;28;20309;-61
2023/01/07 11:53:17;;;;;;;1.70;1.50;;;;;;;9.37;100.00;99897.59;5003000;28;20202;-61
2023/01/07 11:56:07;;;;;;;1.50;1.40;;;;;;;9.58;100.00;99896.56;5005386;28;20304;-60
2023/01/07 11:58:42;;;;;;;2.77;1.50;;;;;;;9.85;100.00;99883.97;5049939;28;20189;-60
2023/01/07 12:01:07;;;;;;;2.00;1.80;;;;;;;9.62;100.00;99874.94;5027694;28;20235;-61
2023/01/07 12:03:38;;;;;;;3.07;2.10;;;;;;;9.44;100.00;99875.03;5034415;28;20316;-60
2023/01/07 12:06:16;;;;;;;2.23;1.90;;;;;;;9.41;100.00;99867.47;5050315;28;20267;-61
2023/01/07 12:08:48;;;;;;;3.33;1.87;;;;;;;9.42;100.00;99864.00;5050418;28;20691;-60
2023/01/07 12:11:14;;;;;;;1.83;1.70;;;;;;;9.42;100.00;99856.28;5040350;28;20306;-60
2023/01/07 12:13:46;;;;;;;2.30;1.90;;;;;;;9.42;100.00;99853.72;5051277;28;20205;-60
2023/01/07 12:16:12;;;;;;;3.73;2.03;;;;;;;9.41;100.00;99852.06;5038068;28;20786;-60
2023/01/07 12:19:00;;;;;;;2.23;2.03;;;;;;;9.27;100.00;99846.84;5058870;28;20196;-59
2023/01/07 12:21:32;;;;;;;2.13;2.00;;;;;;;9.25;100.00;99844.34;5040906;28;20358;-64
2023/01/07 12:24:30;;;;;;;1.87;1.77;;;;;;;9.34;100.00;99846.44;5040418;28;20213;-60
2023/01/07 12:27:03;;;;;;;2.37;2.17;;;;;;;9.20;100.00;99836.91;5049891;28;20653;-60
2023/01/07 12:29:56;;;;;;;4.90;2.20;;;;;;;9.32;100.00;99826.91;5049547;28;20181;-61
2023/01/07 12:32:56;;;;;;;2.53;2.30;;;;;;;9.22;100.00;99829.13;5053771;28;20217;-60
2023/01/07 12:35:29;;;;;;;3.23;2.47;;;;;;;9.44;100.00;99818.53;5051485;28;20620;-60
2023/01/07 12:38:12;;;;;;;1.97;1.77;;;;;;;9.27;100.00;99819.44;5051999;28;20181;-60
2023/01/07 12:40:47;;;;;;;2.50;2.30;;;;;;;9.18;100.00;99817.38;5040086;28;20235;-60